createdAt,value
2017-09-11T08:49:37.905Z,30.50
2017-09-11T08:52:06.061Z,30.30
2017-09-11T08:54:34.209Z,30.00
2017-09-11T08:57:02.421Z,29.80
2017-09-11T08:59:30.613Z,29.60
2017-09-11T09:01:58.809Z,29.20
2017-09-11T09:04:27.737Z,28.80
2017-09-11T09:06:55.968Z,28.80
2017-09-11T09:09:24.146Z,28.50
2017-09-11T09:11:52.316Z,28.70
2017-09-11T09:14:20.504Z,28.10
2017-09-11T09:16:49.418Z,27.90
2017-09-11T09:19:17.581Z,27.80
2017-09-11T09:21:45.737Z,28.30
2017-09-11T09:24:13.918Z,27.70
2017-09-11T09:26:42.865Z,27.70
2017-09-11T09:29:10.990Z,27.70
2017-09-11T09:31:39.108Z,27.70
2017-09-11T09:34:07.253Z,27.50
2017-09-11T09:36:35.400Z,27.50
2017-09-11T09:39:04.676Z,27.30
2017-09-11T09:42:57.293Z,27.30
2017-09-11T09:45:25.712Z,27.30
2017-09-11T09:47:53.913Z,27.50
2017-09-11T09:50:22.134Z,27.10
2017-09-11T09:52:50.300Z,27.30
2017-09-11T09:55:18.429Z,27.10
2017-09-11T09:57:46.584Z,27.10
2017-09-11T10:00:14.881Z,27.10
2017-09-11T10:02:43.880Z,27.00
2017-09-11T10:05:12.789Z,26.80
2017-09-11T10:07:40.916Z,26.80
2017-09-11T10:10:09.653Z,26.80
2017-09-11T10:12:37.779Z,26.80
2017-09-11T10:15:05.935Z,27.20
2017-09-11T10:17:34.093Z,26.90
2017-09-11T10:20:02.260Z,26.70
2017-09-11T10:22:30.406Z,26.70
2017-09-11T10:24:58.565Z,26.70
2017-09-11T10:27:27.465Z,26.50
2017-09-11T10:29:56.380Z,26.30
2017-09-11T10:32:24.618Z,26.20
2017-09-11T10:34:57.961Z,25.90
2017-09-11T10:37:26.124Z,26.20
2017-09-11T10:39:54.264Z,26.10
2017-09-11T10:42:23.173Z,26.10
2017-09-11T10:44:51.329Z,26.10
2017-09-11T10:47:20.248Z,25.50
2017-09-11T10:49:48.698Z,25.50
2017-09-11T10:52:16.848Z,25.30
2017-09-11T10:54:45.005Z,24.50
2017-09-11T10:57:13.152Z,23.50
2017-09-11T10:59:41.288Z,22.60
2017-09-11T11:02:09.448Z,21.80
2017-09-11T11:04:38.377Z,20.80
2017-09-11T11:07:07.109Z,20.70
2017-09-11T11:09:35.300Z,20.50
2017-09-11T11:12:03.460Z,20.10
2017-09-11T11:14:31.615Z,20.00
2017-09-11T11:17:00.533Z,20.60
2017-09-11T11:19:28.649Z,20.60
2017-09-11T11:21:57.546Z,21.50
2017-09-11T11:24:26.469Z,21.50
2017-09-11T11:26:54.712Z,21.50
2017-09-11T11:29:23.237Z,21.40
2017-09-11T11:31:51.420Z,20.90
2017-09-11T11:34:19.563Z,19.40
2017-09-11T11:36:47.740Z,18.00
2017-09-11T11:39:15.907Z,16.90
2017-09-11T11:41:44.099Z,16.20
2017-09-11T11:44:12.252Z,15.70
2017-09-11T11:46:40.410Z,15.60
2017-09-11T11:49:09.396Z,15.40
2017-09-11T11:51:38.385Z,15.40
2017-09-11T11:54:07.418Z,15.60
2017-09-11T11:56:35.556Z,15.60
2017-09-11T11:59:04.543Z,16.30
2017-09-11T12:01:33.433Z,16.60
2017-09-11T12:04:02.329Z,17.00
2017-09-11T12:06:31.237Z,17.20
2017-09-11T12:08:59.456Z,17.20
2017-09-11T12:11:27.662Z,17.60
2017-09-11T12:13:55.816Z,17.90
2017-09-11T12:16:23.968Z,17.80
2017-09-11T12:18:52.156Z,17.70
2017-09-11T12:21:20.312Z,17.50
2017-09-11T12:23:48.616Z,17.20
2017-09-11T12:26:16.765Z,17.10
2017-09-11T12:28:44.927Z,17.10
2017-09-11T12:31:13.065Z,17.40
2017-09-11T12:36:16.880Z,17.90
2017-09-11T12:38:46.161Z,19.20
2017-09-11T12:41:14.333Z,18.70
2017-09-11T12:43:42.501Z,18.80
2017-09-11T12:46:10.668Z,19.20
2017-09-11T12:48:38.840Z,19.50
2017-09-11T12:51:06.986Z,19.50
2017-09-11T12:53:35.147Z,19.60
2017-09-11T12:56:04.068Z,19.20
2017-09-11T12:58:32.212Z,19.20
2017-09-11T13:01:00.380Z,19.50
2017-09-11T13:03:29.300Z,19.40
2017-09-11T13:05:57.460Z,19.40
2017-09-11T13:08:25.633Z,19.70
2017-09-11T13:10:53.769Z,20.00
2017-09-11T13:13:21.971Z,19.90
2017-09-11T13:15:50.197Z,20.00
2017-09-11T13:18:18.361Z,20.10
2017-09-11T13:20:46.617Z,20.40
2017-09-11T13:23:14.817Z,20.50
2017-09-11T13:25:42.948Z,21.10
2017-09-11T13:28:11.110Z,20.90
2017-09-11T13:30:40.016Z,21.00
2017-09-11T13:33:08.235Z,21.00
2017-09-11T13:35:36.385Z,21.20
2017-09-11T13:38:04.525Z,21.10
2017-09-11T13:40:33.428Z,21.20
2017-09-11T13:43:01.576Z,21.20
2017-09-11T13:45:29.748Z,21.50
2017-09-11T13:47:57.914Z,21.40
2017-09-11T13:50:26.080Z,21.90
2017-09-11T13:52:54.253Z,21.40
2017-09-11T13:55:22.393Z,21.10
2017-09-11T13:57:50.605Z,20.90
2017-09-11T14:00:18.749Z,21.00
2017-09-11T14:02:46.890Z,21.10
2017-09-11T14:05:15.840Z,20.90
2017-09-11T14:07:44.013Z,20.90
2017-09-11T14:10:26.673Z,20.80
2017-09-11T14:12:56.010Z,20.80
2017-09-11T14:15:24.137Z,20.80
2017-09-11T14:17:52.380Z,20.80
2017-09-11T14:20:20.554Z,20.90
2017-09-11T14:22:48.735Z,20.60
2017-09-11T14:25:16.894Z,20.30
2017-09-11T14:27:45.080Z,20.30
2017-09-11T14:30:13.534Z,20.40
2017-09-11T14:32:41.773Z,20.50
2017-09-11T14:35:10.696Z,21.20
2017-09-11T14:37:38.876Z,21.20
2017-09-11T14:40:07.025Z,21.40
2017-09-11T14:42:35.194Z,21.60
2017-09-11T14:45:04.200Z,22.10
2017-09-11T14:47:32.332Z,22.10
2017-09-11T14:50:00.481Z,22.20
2017-09-11T14:52:28.925Z,22.50
2017-09-11T14:54:57.091Z,22.60
2017-09-11T14:57:25.858Z,22.70
2017-09-11T14:59:54.746Z,23.00
2017-09-11T15:02:23.660Z,23.60
2017-09-11T15:04:51.806Z,23.10
2017-09-11T15:07:19.940Z,23.00
2017-09-11T15:09:48.091Z,23.00
2017-09-11T15:12:16.216Z,23.30
2017-09-11T15:14:44.357Z,23.10
2017-09-11T15:17:12.505Z,23.30
2017-09-11T15:19:40.668Z,23.20
2017-09-11T15:22:08.857Z,23.40
2017-09-11T15:24:37.016Z,23.50
2017-09-11T15:27:05.666Z,23.50
2017-09-11T15:29:33.797Z,23.80
2017-09-11T15:32:01.932Z,23.80
2017-09-11T15:34:30.864Z,24.20
2017-09-11T15:36:58.978Z,24.20
2017-09-11T15:39:27.130Z,24.30
2017-09-11T15:41:55.269Z,24.30
2017-09-11T15:44:23.686Z,24.30
2017-09-11T15:46:51.856Z,24.40
2017-09-11T15:49:21.025Z,24.50
2017-09-11T15:51:49.200Z,24.60
2017-09-11T15:54:17.320Z,24.60
2017-09-11T15:56:45.534Z,24.80
2017-09-11T15:59:14.167Z,24.70
2017-09-11T16:01:42.321Z,24.80
2017-09-11T16:04:10.452Z,24.90
2017-09-11T16:06:39.421Z,25.10
2017-09-11T16:09:07.560Z,25.10
2017-09-11T16:11:35.984Z,25.00
2017-09-11T16:14:04.125Z,25.10
2017-09-11T16:16:32.263Z,25.20
2017-09-11T16:19:01.204Z,25.30
2017-09-11T16:21:29.352Z,25.20
2017-09-11T16:23:57.539Z,25.30
2017-09-11T16:26:25.684Z,25.30
2017-09-11T16:28:53.831Z,25.30
2017-09-11T16:31:22.748Z,25.40
2017-09-11T16:33:50.884Z,25.40
2017-09-11T16:36:19.016Z,25.40
2017-09-11T16:38:47.252Z,25.50
2017-09-11T16:41:16.159Z,25.50
2017-09-11T16:43:44.284Z,25.60
2017-09-11T16:46:12.397Z,25.60
2017-09-11T16:48:41.308Z,25.60
2017-09-11T16:51:09.424Z,25.60
2017-09-11T16:53:37.564Z,25.60
2017-09-11T16:56:05.709Z,25.60
2017-09-11T16:58:34.615Z,25.60
2017-09-11T17:01:02.860Z,25.60
2017-09-11T17:03:31.764Z,25.60
2017-09-11T17:06:00.670Z,25.60
2017-09-11T17:08:29.061Z,25.60
2017-09-11T17:10:57.212Z,25.60
2017-09-11T17:13:25.349Z,25.50
2017-09-11T17:15:53.501Z,25.50
2017-09-11T17:18:21.633Z,25.60
2017-09-11T17:20:49.766Z,25.50
2017-09-11T17:23:17.892Z,25.50
2017-09-11T17:25:46.081Z,25.50
2017-09-11T17:28:14.212Z,25.50
2017-09-11T17:30:43.093Z,25.40
2017-09-11T17:33:11.219Z,25.50
2017-09-11T17:35:39.364Z,25.40
2017-09-11T17:38:07.516Z,25.40
2017-09-11T17:40:36.416Z,25.80
2017-09-11T17:43:05.317Z,25.40
2017-09-11T17:45:33.461Z,25.40
2017-09-11T17:48:01.632Z,25.40
2017-09-11T17:50:29.779Z,25.40
2017-09-11T17:52:58.164Z,25.40
2017-09-11T17:55:26.345Z,25.40
2017-09-11T17:57:54.501Z,25.30
2017-09-11T18:00:22.648Z,25.30
2017-09-11T18:02:50.783Z,25.40
2017-09-11T18:05:18.924Z,25.40
2017-09-11T18:07:47.085Z,25.40
2017-09-11T18:10:15.219Z,25.30
2017-09-11T18:12:44.124Z,25.40
2017-09-11T18:15:13.088Z,25.30
2017-09-11T18:17:41.231Z,25.30
2017-09-11T18:20:09.999Z,25.30
2017-09-11T18:22:38.156Z,25.40
2017-09-11T18:25:06.332Z,25.40
2017-09-11T18:27:34.468Z,25.40
2017-09-11T18:30:02.593Z,25.40
2017-09-11T18:32:30.742Z,25.40
2017-09-11T18:34:58.872Z,25.40
2017-09-11T18:37:27.132Z,25.40
2017-09-11T18:39:55.344Z,25.40
2017-09-11T18:42:23.549Z,25.50
2017-09-11T18:44:51.664Z,25.50
2017-09-11T18:47:20.408Z,25.50
2017-09-11T18:49:48.547Z,25.50
2017-09-11T18:52:16.686Z,25.50
2017-09-11T18:54:44.808Z,25.50
2017-09-11T18:57:13.703Z,25.60
2017-09-11T18:59:42.628Z,25.60
2017-09-11T19:02:10.760Z,25.60
2017-09-11T19:04:39.659Z,25.50
2017-09-11T19:07:08.576Z,25.70
2017-09-11T19:09:36.731Z,25.60
2017-09-11T19:12:05.668Z,25.70
2017-09-11T19:14:34.376Z,25.70
2017-09-11T19:17:02.545Z,25.70
2017-09-11T19:19:30.679Z,25.70
2017-09-11T19:21:58.839Z,25.70
2017-09-11T19:24:26.964Z,25.70
2017-09-11T19:26:55.184Z,25.70
2017-09-11T19:29:24.096Z,25.70
2017-09-11T19:31:52.241Z,25.70
2017-09-11T19:34:21.159Z,25.70
2017-09-11T19:36:49.308Z,25.70
2017-09-11T19:39:18.218Z,25.70
2017-09-11T19:41:46.359Z,25.70
2017-09-11T19:44:14.484Z,25.70
2017-09-11T19:46:42.630Z,25.70
2017-09-11T19:49:10.800Z,25.70
2017-09-11T19:51:39.800Z,25.80
2017-09-11T19:54:07.928Z,25.70
2017-09-11T19:56:37.579Z,25.80
2017-09-11T19:59:05.740Z,25.80
2017-09-11T20:01:34.652Z,25.90
2017-09-11T20:04:02.876Z,25.80
2017-09-11T20:06:31.025Z,25.70
2017-09-11T20:09:00.173Z,25.80
2017-09-11T20:11:28.340Z,25.90
2017-09-11T20:13:56.476Z,25.90
2017-09-11T20:16:24.629Z,25.90
2017-09-11T20:18:52.752Z,25.90
2017-09-11T20:21:20.896Z,25.90
2017-09-11T20:23:49.045Z,25.90
2017-09-11T20:26:17.237Z,25.90
2017-09-11T20:28:45.372Z,25.90
2017-09-11T20:31:14.295Z,26.00
2017-09-11T20:33:42.424Z,25.90
2017-09-11T20:36:11.340Z,26.00
2017-09-11T20:38:39.476Z,25.90
2017-09-11T20:41:07.623Z,26.00
2017-09-11T20:43:35.744Z,25.90
2017-09-11T20:46:04.637Z,26.00
2017-09-11T20:48:33.628Z,26.00
2017-09-11T20:51:03.216Z,26.00
2017-09-11T20:53:31.352Z,26.00
2017-09-11T20:55:59.497Z,26.00
2017-09-11T20:58:27.640Z,26.00
2017-09-11T21:00:55.785Z,26.00
2017-09-11T21:03:23.907Z,26.00
2017-09-11T21:05:52.793Z,26.00
2017-09-11T21:08:21.692Z,26.10
2017-09-11T21:10:49.945Z,26.00
2017-09-11T21:13:18.107Z,26.00
2017-09-11T21:15:46.240Z,26.00
2017-09-11T21:18:14.392Z,26.00
2017-09-11T21:20:42.801Z,26.00
2017-09-11T21:23:10.938Z,26.00
2017-09-11T21:25:39.897Z,26.10
2017-09-11T21:28:08.048Z,26.10
2017-09-11T21:30:36.169Z,26.00
2017-09-11T21:33:05.144Z,26.10
2017-09-11T21:35:33.312Z,26.00
2017-09-11T21:38:01.460Z,26.00
2017-09-11T21:40:29.593Z,26.10
2017-09-11T21:42:58.716Z,26.00
2017-09-11T21:45:26.845Z,26.00
2017-09-11T21:47:55.748Z,26.40
2017-09-11T21:50:24.669Z,25.90
2017-09-11T21:52:52.790Z,25.90
2017-09-11T21:55:20.950Z,25.90
2017-09-11T21:57:49.092Z,25.90
2017-09-11T22:00:17.833Z,25.80
2017-09-11T22:02:45.956Z,25.90
2017-09-11T22:05:14.084Z,25.90
2017-09-11T22:07:43.002Z,25.90
2017-09-11T22:10:11.132Z,25.90
2017-09-11T22:12:39.272Z,25.90
2017-09-11T22:15:07.421Z,25.80
2017-09-11T22:17:35.556Z,25.90
2017-09-11T22:20:03.692Z,25.90
2017-09-11T22:22:31.838Z,25.80
2017-09-11T22:24:59.988Z,25.80
2017-09-11T22:27:28.905Z,25.80
2017-09-11T22:29:57.393Z,25.80
2017-09-11T22:32:25.548Z,25.80
2017-09-11T22:37:29.634Z,25.80
2017-09-11T22:39:57.786Z,25.80
2017-09-11T22:42:25.916Z,25.80
2017-09-11T22:44:54.808Z,25.80
2017-09-11T22:48:48.511Z,25.80
2017-09-11T22:51:16.676Z,25.80
2017-09-11T22:53:44.868Z,25.90
2017-09-11T22:56:12.992Z,26.00
2017-09-11T22:58:41.116Z,25.90
2017-09-11T23:01:09.256Z,25.90
2017-09-11T23:03:38.139Z,25.90
2017-09-11T23:06:07.020Z,25.80
2017-09-11T23:08:35.148Z,25.80
2017-09-11T23:11:03.295Z,25.80
2017-09-11T23:13:32.136Z,25.80
2017-09-11T23:16:00.262Z,25.80
2017-09-11T23:18:28.400Z,25.70
2017-09-11T23:20:56.637Z,25.70
2017-09-11T23:23:24.776Z,25.70
2017-09-11T23:25:52.928Z,25.70
2017-09-11T23:28:21.064Z,25.70
2017-09-11T23:30:49.208Z,25.70
2017-09-11T23:33:17.332Z,25.70
2017-09-11T23:35:45.512Z,25.70
2017-09-11T23:38:13.657Z,25.70
2017-09-11T23:40:41.788Z,25.70
2017-09-11T23:43:10.697Z,25.60
2017-09-11T23:45:38.867Z,25.60
2017-09-11T23:48:07.570Z,25.50
2017-09-11T23:50:35.701Z,25.60
2017-09-11T23:53:04.600Z,25.60
2017-09-11T23:55:33.480Z,25.50
2017-09-11T23:58:02.392Z,25.50
